Time;durP1;ratioP1;P1;durP2;ratioP2;P2;SDS_P1;SDS_P2;PMS_P1;PMS_P2;Temp;Humidity;BMP_temperature;BMP_pressure;BME280_temperature;BME280_humidity;BME280_pressure;Samples;Min_cycle;Max_cycle;Signal;HPM_P1;HPM_P2
2023/12/05 00:01:56;;;;;;;20.15;10.70;;;2.50;85.70;;;;;;9187832;19;20085;-73
2023/12/05 00:05:04;;;;;;;21.70;10.85;;;2.50;85.70;;;;;;9185264;19;20021;-74
2023/12/05 00:08:13;;;;;;;21.70;11.70;;;2.40;85.70;;;;;;9184777;19;20103;-74
2023/12/05 00:11:21;;;;;;;18.90;11.25;;;2.50;85.80;;;;;;9180517;19;20011;-75
2023/12/05 00:14:27;;;;;;;25.48;11.63;;;2.40;85.70;;;;;;9182473;19;20046;-74
2023/12/05 00:17:35;;;;;;;20.17;10.80;;;2.50;85.80;;;;;;9179061;19;21159;-76
2023/12/05 00:20:40;;;;;;;23.50;11.18;;;2.50;85.80;;;;;;9181979;19;20019;-72
2023/12/05 00:23:50;;;;;;;20.10;11.02;;;2.40;85.80;;;;;;9183335;19;20037;-74
2023/12/05 00:26:56;;;;;;;23.45;11.73;;;2.50;85.80;;;;;;9181213;19;20928;-75
2023/12/05 00:30:03;;;;;;;23.02;12.20;;;2.40;85.80;;;;;;9181055;19;20778;-74
2023/12/05 00:33:09;;;;;;;18.65;11.05;;;2.50;85.90;;;;;;9179813;19;20002;-73
2023/12/05 00:36:18;;;;;;;23.05;12.27;;;2.50;85.80;;;;;;9177745;19;21008;-73
2023/12/05 00:39:26;;;;;;;20.80;11.85;;;2.40;85.90;;;;;;9176386;19;20019;-73
2023/12/05 00:42:34;;;;;;;22.48;11.68;;;2.40;85.90;;;;;;9179099;19;20030;-75
2023/12/05 00:45:40;;;;;;;19.90;10.63;;;2.50;86.00;;;;;;9178172;19;20019;-73
2023/12/05 00:48:47;;;;;;;20.88;11.77;;;2.40;85.90;;;;;;9178261;19;20485;-74
2023/12/05 00:51:53;;;;;;;22.83;11.55;;;2.40;85.90;;;;;;9177203;19;20017;-75
2023/12/05 00:55:04;;;;;;;23.42;11.68;;;2.40;86.00;;;;;;9172587;19;20014;-73
2023/12/05 00:58:10;;;;;;;21.60;11.63;;;2.50;86.00;;;;;;9168463;19;20010;-75
2023/12/05 01:01:20;;;;;;;22.30;11.50;;;2.40;86.00;;;;;;9172566;19;20021;-75
2023/12/05 01:04:26;;;;;;;21.33;10.90;;;2.50;86.00;;;;;;9174018;19;20221;-75
2023/12/05 01:07:34;;;;;;;19.73;10.38;;;2.50;86.00;;;;;;9174231;19;20018;-75
2023/12/05 01:10:42;;;;;;;23.27;10.93;;;2.40;85.90;;;;;;9175186;19;20014;-73
2023/12/05 01:13:49;;;;;;;18.35;11.00;;;2.40;86.00;;;;;;9174285;19;20011;-71
2023/12/05 01:16:55;;;;;;;19.67;10.63;;;2.40;86.00;;;;;;9173744;19;20022;-71
2023/12/05 01:20:06;;;;;;;22.65;12.38;;;2.40;86.00;;;;;;9174515;19;20021;-71
2023/12/05 01:23:12;;;;;;;21.75;11.85;;;2.50;86.10;;;;;;9173725;19;20491;-73
2023/12/05 01:26:23;;;;;;;23.33;11.27;;;2.50;86.10;;;;;;9174135;19;20018;-70
2023/12/05 01:29:28;;;;;;;23.65;11.00;;;2.40;86.00;;;;;;9174458;19;20052;-73
2023/12/05 01:32:35;;;;;;;20.15;11.02;;;2.50;86.10;;;;;;9177413;19;20019;-71
2023/12/05 01:35:41;;;;;;;23.83;12.70;;;2.40;86.00;;;;;;9176260;19;20069;-69
2023/12/05 01:38:49;;;;;;;19.55;10.45;;;2.50;86.10;;;;;;9173765;19;20018;-71
2023/12/05 01:41:57;;;;;;;19.88;10.75;;;2.40;86.00;;;;;;9177376;19;20006;-69
2023/12/05 01:45:10;;;;;;;22.83;11.10;;;2.50;86.20;;;;;;9177229;19;20483;-71
2023/12/05 01:48:16;;;;;;;21.67;11.00;;;2.40;86.10;;;;;;9176892;19;20594;-71
2023/12/05 01:51:24;;;;;;;21.65;10.77;;;2.50;86.20;;;;;;9176380;19;20362;-71
2023/12/05 01:54:30;;;;;;;20.77;10.82;;;2.50;86.20;;;;;;9175214;19;20536;-72
2023/12/05 01:57:40;;;;;;;18.88;10.25;;;2.50;86.20;;;;;;9169891;19;20026;-70
2023/12/05 02:00:46;;;;;;;21.15;11.57;;;2.50;86.20;;;;;;9177330;19;20559;-70
2023/12/05 02:03:53;;;;;;;20.42;11.32;;;2.40;86.10;;;;;;9176003;19;20476;-70
2023/12/05 02:06:59;;;;;;;22.27;10.45;;;2.40;86.20;;;;;;9176582;19;20341;-72
2023/12/05 02:10:08;;;;;;;21.27;10.35;;;2.40;86.20;;;;;;9175655;19;20684;-70
2023/12/05 02:13:17;;;;;;;25.88;12.15;;;2.40;86.30;;;;;;9176096;19;20044;-70
2023/12/05 02:16:33;;;;;;;20.95;10.93;;;2.50;86.30;;;;;;9176098;19;20018;-73
2023/12/05 02:19:59;;;;;;;20.75;11.20;;;2.40;86.30;;;;;;9174499;19;20025;-71
2023/12/05 02:23:39;;;;;;;22.50;11.07;;;2.50;86.30;;;;;;9176296;19;20094;-71
2023/12/05 02:26:52;;;;;;;20.40;10.32;;;2.40;86.30;;;;;;9174266;19;20014;-71
2023/12/05 02:30:02;;;;;;;18.73;10.65;;;2.40;86.30;;;;;;9175624;19;20066;-72
2023/12/05 02:33:08;;;;;;;21.60;11.32;;;2.40;86.30;;;;;;9175915;19;20006;-71
2023/12/05 02:36:23;;;;;;;24.85;12.18;;;2.40;86.40;;;;;;9173660;19;20042;-72
2023/12/05 02:39:35;;;;;;;27.98;11.57;;;2.40;86.40;;;;;;9173448;19;20010;-72
2023/12/05 02:42:46;;;;;;;22.23;11.70;;;2.40;86.30;;;;;;9174305;19;20047;-71
2023/12/05 02:45:57;;;;;;;20.67;11.30;;;2.40;86.40;;;;;;9175131;19;20810;-70
2023/12/05 02:49:16;;;;;;;19.80;11.43;;;2.50;86.40;;;;;;9175536;19;20036;-70
2023/12/05 02:52:22;;;;;;;21.70;10.95;;;2.40;86.30;;;;;;9175542;19;20016;-71
2023/12/05 02:55:29;;;;;;;23.27;11.93;;;2.50;86.40;;;;;;9173294;19;20018;-71
2023/12/05 02:58:35;;;;;;;22.85;11.82;;;2.50;86.50;;;;;;9169301;19;20017;-71
2023/12/05 03:01:45;;;;;;;21.63;11.07;;;2.40;86.40;;;;;;9175146;19;20356;-70
2023/12/05 03:04:51;;;;;;;23.08;12.13;;;2.50;86.50;;;;;;9184124;19;20658;-70
2023/12/05 03:07:58;;;;;;;21.52;11.05;;;2.40;86.50;;;;;;9181603;19;20010;-69
2023/12/05 03:11:04;;;;;;;20.75;10.50;;;2.50;86.60;;;;;;9184778;19;20344;-70
2023/12/05 03:14:16;;;;;;;25.52;11.93;;;2.50;86.60;;;;;;9183193;19;20015;-72
2023/12/05 03:17:24;;;;;;;18.90;10.57;;;2.50;86.60;;;;;;9181076;19;20018;-70
2023/12/05 03:20:32;;;;;;;24.75;10.88;;;2.50;87.20;;;;;;9182672;19;20452;-72
2023/12/05 03:23:37;;;;;;;26.08;12.55;;;2.50;86.70;;;;;;9182755;19;20361;-71
2023/12/05 03:26:45;;;;;;;21.63;11.40;;;2.50;86.70;;;;;;9179676;19;20014;-68
2023/12/05 03:29:50;;;;;;;22.30;10.85;;;2.50;86.70;;;;;;9182381;19;20014;-69
2023/12/05 03:33:00;;;;;;;22.95;12.02;;;2.50;86.60;;;;;;9183611;19;20014;-73
2023/12/05 03:36:07;;;;;;;19.25;10.95;;;2.60;86.70;;;;;;9182883;19;20019;-74
2023/12/05 03:39:15;;;;;;;20.65;11.55;;;2.50;86.60;;;;;;9181336;19;20021;-72
2023/12/05 03:42:20;;;;;;;24.30;11.48;;;2.50;86.60;;;;;;9183092;19;20019;-72
2023/12/05 03:45:28;;;;;;;22.17;11.75;;;2.50;86.60;;;;;;9182597;19;20018;-73
2023/12/05 03:48:36;;;;;;;21.73;11.85;;;2.60;86.70;;;;;;9180636;19;20472;-74
2023/12/05 03:51:44;;;;;;;21.80;10.85;;;2.60;86.70;;;;;;9181831;19;20014;-73
2023/12/05 03:54:50;;;;;;;21.95;11.75;;;2.60;86.70;;;;;;9180038;19;20580;-73
2023/12/05 03:57:57;;;;;;;21.60;10.50;;;2.50;86.70;;;;;;9177336;19;20021;-73
2023/12/05 04:01:03;;;;;;;20.40;11.43;;;2.60;86.80;;;;;;9182567;19;20134;-73
2023/12/05 04:04:13;;;;;;;19.25;10.70;;;2.60;86.70;;;;;;9181845;19;20014;-73
2023/12/05 04:07:18;;;;;;;20.00;11.48;;;2.60;86.70;;;;;;9179649;19;20382;-73
2023/12/05 04:10:26;;;;;;;19.75;10.82;;;2.60;86.80;;;;;;9181432;19;20018;-72
2023/12/05 04:13:33;;;;;;;21.20;11.02;;;2.50;86.70;;;;;;9180934;19;20029;-72
2023/12/05 04:16:41;;;;;;;20.70;12.02;;;2.60;86.80;;;;;;9181429;19;20325;-73
2023/12/05 04:19:49;;;;;;;20.88;11.15;;;2.60;86.80;;;;;;9176971;19;20361;-73
2023/12/05 04:22:56;;;;;;;19.35;10.73;;;2.60;86.80;;;;;;9178383;19;20373;-73
2023/12/05 04:26:02;;;;;;;18.65;10.77;;;2.60;86.90;;;;;;9180771;19;20107;-71
2023/12/05 04:29:10;;;;;;;22.38;11.45;;;2.60;86.90;;;;;;9180375;19;20015;-73
2023/12/05 04:32:15;;;;;;;24.20;12.07;;;2.60;86.90;;;;;;9178522;19;20074;-74
2023/12/05 04:35:25;;;;;;;22.95;11.25;;;2.60;86.90;;;;;;9178565;19;20022;-72
2023/12/05 04:38:31;;;;;;;19.70;11.20;;;2.60;86.90;;;;;;9180534;19;20026;-73
2023/12/05 04:41:38;;;;;;;20.17;11.02;;;2.60;86.90;;;;;;9180963;19;20022;-72
2023/12/05 04:44:44;;;;;;;22.83;12.98;;;2.60;86.90;;;;;;9177812;19;20018;-72
2023/12/05 04:47:52;;;;;;;21.08;11.40;;;2.60;86.80;;;;;;9178464;19;20492;-74
2023/12/05 04:51:00;;;;;;;21.52;12.40;;;2.60;86.90;;;;;;9179060;19;20078;-74
2023/12/05 04:54:07;;;;;;;21.33;11.35;;;2.60;87.00;;;;;;9178701;19;20027;-73
2023/12/05 04:57:13;;;;;;;19.88;11.45;;;2.60;86.90;;;;;;9173793;19;20623;-73
2023/12/05 05:00:21;;;;;;;23.60;11.45;;;2.60;86.90;;;;;;9177155;19;20030;-73
2023/12/05 05:03:26;;;;;;;22.05;11.88;;;2.60;86.90;;;;;;9179449;19;20361;-72
2023/12/05 05:06:37;;;;;;;22.38;11.82;;;2.60;87.00;;;;;;9178464;19;20010;-72
2023/12/05 05:09:42;;;;;;;22.52;11.25;;;2.60;87.00;;;;;;9178613;19;20026;-73
2023/12/05 05:12:50;;;;;;;22.38;11.77;;;2.60;87.00;;;;;;9179445;19;20010;-72
2023/12/05 05:15:55;;;;;;;20.60;11.65;;;2.60;87.00;;;;;;9179308;19;20021;-74
2023/12/05 05:19:03;;;;;;;19.13;11.38;;;2.60;87.10;;;;;;9178025;19;20464;-74
2023/12/05 05:22:12;;;;;;;20.17;11.20;;;2.60;87.10;;;;;;9178405;19;20077;-74
2023/12/05 05:25:19;;;;;;;21.83;11.52;;;2.70;87.20;;;;;;9176334;19;20033;-73
2023/12/05 05:28:25;;;;;;;26.20;11.82;;;2.70;87.20;;;;;;9178191;19;20015;-73
2023/12/05 05:31:32;;;;;;;21.80;11.23;;;2.70;87.20;;;;;;9178644;19;20353;-73
2023/12/05 05:34:40;;;;;;;19.98;10.88;;;2.70;87.10;;;;;;9178410;19;20013;-73
2023/12/05 05:37:50;;;;;;;22.52;11.23;;;2.70;87.20;;;;;;9178047;19;20015;-73
2023/12/05 05:41:06;;;;;;;19.58;11.52;;;2.70;87.20;;;;;;9176506;19;20393;-75
2023/12/05 05:44:14;;;;;;;20.90;11.52;;;2.70;87.30;;;;;;9176958;19;20358;-74
2023/12/05 05:47:19;;;;;;;20.90;11.38;;;2.70;87.20;;;;;;9176840;19;20090;-74
2023/12/05 05:50:27;;;;;;;23.00;12.60;;;2.70;87.20;;;;;;9174677;19;20033;-75
2023/12/05 05:53:35;;;;;;;23.80;12.77;;;2.60;87.10;;;;;;9177319;19;20015;-72
2023/12/05 05:56:43;;;;;;;21.00;11.68;;;2.70;87.20;;;;;;9173442;19;20014;-73
2023/12/05 05:59:48;;;;;;;23.08;12.77;;;2.70;87.20;;;;;;9173622;19;20341;-73
2023/12/05 06:02:57;;;;;;;22.67;11.88;;;2.70;87.20;;;;;;9176246;19;20007;-73
2023/12/05 06:06:02;;;;;;;30.25;13.07;;;2.70;87.20;;;;;;9174356;19;20023;-74
2023/12/05 06:09:14;;;;;;;23.30;12.52;;;2.70;87.20;;;;;;9176762;19;20484;-73
2023/12/05 06:12:20;;;;;;;24.48;12.75;;;2.70;87.30;;;;;;9176429;19;20025;-73
2023/12/05 06:15:27;;;;;;;24.55;13.68;;;2.70;87.20;;;;;;9175485;19;20018;-75
2023/12/05 06:18:33;;;;;;;21.50;11.50;;;2.70;87.20;;;;;;9174550;19;20019;-73
2023/12/05 06:21:41;;;;;;;20.48;11.90;;;2.70;87.30;;;;;;9173924;19;20492;-73
2023/12/05 06:24:49;;;;;;;28.05;12.70;;;2.70;87.20;;;;;;9173763;19;20392;-73
2023/12/05 06:27:56;;;;;;;21.85;11.82;;;2.70;87.30;;;;;;9173804;19;20010;-73
2023/12/05 06:31:02;;;;;;;27.75;13.40;;;2.70;87.30;;;;;;9173830;19;20042;-74
2023/12/05 06:34:10;;;;;;;23.25;11.93;;;2.80;87.40;;;;;;9172186;19;20025;-74
2023/12/05 06:37:16;;;;;;;20.92;12.10;;;2.80;87.40;;;;;;9171293;19;20010;-73
2023/12/05 06:40:28;;;;;;;22.92;11.80;;;2.70;87.40;;;;;;9172888;19;20011;-73
2023/12/05 06:43:34;;;;;;;22.17;12.15;;;2.70;87.40;;;;;;9175099;19;20044;-73
2023/12/05 06:46:41;;;;;;;22.88;12.98;;;2.70;87.40;;;;;;9175427;19;20053;-73
2023/12/05 06:49:47;;;;;;;23.65;13.35;;;2.70;87.40;;;;;;9174250;19;20015;-73
2023/12/05 06:52:57;;;;;;;28.00;13.68;;;2.80;87.40;;;;;;9172632;19;20011;-73
2023/12/05 06:56:05;;;;;;;25.95;13.07;;;2.70;87.40;;;;;;9169230;19;20015;-73
2023/12/05 06:59:14;;;;;;;25.67;12.65;;;2.80;87.50;;;;;;9169135;19;20022;-74
2023/12/05 07:02:19;;;;;;;29.20;13.88;;;2.70;87.40;;;;;;9168342;19;20015;-73
2023/12/05 07:05:27;;;;;;;26.58;13.65;;;2.70;87.50;;;;;;9172040;19;20010;-73
2023/12/05 07:08:35;;;;;;;27.17;13.45;;;2.70;87.50;;;;;;9171245;19;20029;-73
2023/12/05 07:11:45;;;;;;;24.67;12.63;;;2.70;87.60;;;;;;9171765;19;20018;-74
2023/12/05 07:14:51;;;;;;;28.15;14.35;;;2.80;87.60;;;;;;9173846;19;20019;-71
2023/12/05 07:17:58;;;;;;;23.45;13.23;;;2.70;87.60;;;;;;9172700;19;20015;-70
2023/12/05 07:21:04;;;;;;;26.23;14.43;;;2.80;87.60;;;;;;9170847;19;20042;-70
2023/12/05 07:24:11;;;;;;;29.88;14.93;;;2.70;87.60;;;;;;9170988;19;20021;-70
2023/12/05 07:27:19;;;;;;;35.50;19.33;;;2.70;87.60;;;;;;9170784;19;20365;-70
2023/12/05 07:30:27;;;;;;;29.08;14.85;;;2.80;87.60;;;;;;9170004;19;20023;-70
2023/12/05 07:33:32;;;;;;;28.23;15.13;;;2.80;87.60;;;;;;9172304;19;20014;-70
2023/12/05 07:36:42;;;;;;;28.40;14.27;;;2.80;87.60;;;;;;9170048;19;20018;-70
2023/12/05 07:39:48;;;;;;;27.17;13.77;;;2.80;87.70;;;;;;9170550;19;20018;-74
2023/12/05 07:42:58;;;;;;;26.65;13.55;;;2.70;87.60;;;;;;9167190;19;20018;-71
2023/12/05 07:46:07;;;;;;;23.27;13.57;;;2.80;87.60;;;;;;9169374;19;20496;-71
2023/12/05 07:49:15;;;;;;;25.48;14.13;;;2.80;87.60;;;;;;9177169;19;20591;-71
2023/12/05 07:52:21;;;;;;;23.90;13.70;;;2.80;87.60;;;;;;9182547;19;20056;-72
2023/12/05 07:55:29;;;;;;;31.73;14.95;;;2.80;87.60;;;;;;9179218;19;20011;-70
2023/12/05 07:58:37;;;;;;;27.70;15.30;;;2.80;87.60;;;;;;9176712;19;20010;-72
2023/12/05 08:01:46;;;;;;;23.60;13.32;;;2.80;87.60;;;;;;9178015;19;20037;-71
2023/12/05 08:04:52;;;;;;;34.63;16.40;;;2.80;87.60;;;;;;9171025;19;20018;-71
2023/12/05 08:07:59;;;;;;;31.83;15.27;;;2.80;87.60;;;;;;9174424;19;20123;-71
2023/12/05 08:11:05;;;;;;;29.60;15.57;;;2.80;87.60;;;;;;9174991;19;20011;-71
2023/12/05 08:14:16;;;;;;;34.30;15.40;;;2.80;87.70;;;;;;9173588;19;20022;-73
2023/12/05 08:17:21;;;;;;;26.25;15.25;;;2.80;87.70;;;;;;9176375;19;20014;-73
2023/12/05 08:20:29;;;;;;;32.22;15.68;;;2.80;87.80;;;;;;9178018;19;20019;-73
2023/12/05 08:23:34;;;;;;;29.23;14.20;;;2.80;87.70;;;;;;9177402;19;20030;-71
2023/12/05 08:26:42;;;;;;;30.23;14.68;;;2.80;87.80;;;;;;9178925;19;20018;-71
2023/12/05 08:29:50;;;;;;;27.10;15.02;;;2.80;87.80;;;;;;9176707;19;20011;-70
2023/12/05 08:32:58;;;;;;;29.50;13.95;;;2.80;87.90;;;;;;9176856;19;20049;-70
2023/12/05 08:36:04;;;;;;;29.13;15.40;;;2.80;87.90;;;;;;9176710;19;20484;-70
2023/12/05 08:39:11;;;;;;;25.25;13.82;;;2.80;87.90;;;;;;9179657;19;20014;-69
2023/12/05 08:42:17;;;;;;;25.27;14.02;;;2.90;87.90;;;;;;9177833;19;20014;-69
2023/12/05 08:45:27;;;;;;;29.52;14.32;;;2.90;87.90;;;;;;9180167;19;20022;-69
2023/12/05 08:48:33;;;;;;;23.80;14.20;;;2.90;87.90;;;;;;9178164;19;20018;-69
2023/12/05 08:51:41;;;;;;;27.60;14.00;;;2.90;87.90;;;;;;9177377;19;20368;-69
2023/12/05 08:54:47;;;;;;;25.38;13.55;;;2.90;87.90;;;;;;9177504;19;20033;-69
2023/12/05 08:57:55;;;;;;;26.75;14.93;;;2.90;87.90;;;;;;9175172;19;20014;-69
2023/12/05 09:01:03;;;;;;;37.25;18.08;;;2.90;87.80;;;;;;9176581;19;20384;-69
2023/12/05 09:04:11;;;;;;;28.83;14.68;;;2.90;88.40;;;;;;9178199;19;20029;-68
2023/12/05 09:07:17;;;;;;;29.08;15.73;;;2.90;87.80;;;;;;9178609;19;20028;-69
2023/12/05 09:10:25;;;;;;;27.98;14.73;;;2.90;87.80;;;;;;9178641;19;20011;-69
2023/12/05 09:13:33;;;;;;;26.73;14.02;;;3.00;87.90;;;;;;9174077;19;20491;-69
2023/12/05 09:16:43;;;;;;;25.70;14.73;;;3.00;87.80;;;;;;9177078;19;20019;-69
2023/12/05 09:19:50;;;;;;;25.90;13.30;;;3.00;87.90;;;;;;9174253;19;20006;-72
2023/12/05 09:22:58;;;;;;;26.55;14.40;;;3.00;87.90;;;;;;9171371;19;20041;-72
2023/12/05 09:26:06;;;;;;;25.50;13.75;;;3.00;87.90;;;;;;9174705;19;20022;-71
2023/12/05 09:29:15;;;;;;;31.40;15.73;;;3.00;88.00;;;;;;9175766;19;20352;-73
2023/12/05 09:32:23;;;;;;;29.77;15.40;;;3.00;87.90;;;;;;9176838;19;20014;-70
2023/12/05 09:35:31;;;;;;;28.52;15.18;;;3.00;87.90;;;;;;9175431;19;20090;-71
2023/12/05 09:38:36;;;;;;;26.00;14.95;;;3.00;88.00;;;;;;9174959;19;20479;-73
2023/12/05 09:41:50;;;;;;;29.15;14.65;;;3.00;88.00;;;;;;9172761;19;20021;-72
2023/12/05 09:44:56;;;;;;;27.35;14.27;;;3.00;88.00;;;;;;9174366;19;20450;-72
2023/12/05 09:48:09;;;;;;;29.88;15.93;;;3.00;88.00;;;;;;9173423;19;20486;-72
2023/12/05 09:51:16;;;;;;;28.60;15.60;;;3.00;88.00;;;;;;9173536;19;20018;-72
2023/12/05 09:54:26;;;;;;;31.15;15.90;;;3.00;88.00;;;;;;9172259;19;20007;-71
2023/12/05 09:57:32;;;;;;;29.88;15.27;;;3.00;88.00;;;;;;9166340;19;20022;-71
2023/12/05 10:00:39;;;;;;;27.42;15.75;;;3.10;88.00;;;;;;9176170;19;20025;-71
2023/12/05 10:03:57;;;;;;;30.27;16.02;;;3.10;88.10;;;;;;9173241;19;20090;-73
2023/12/05 10:07:05;;;;;;;30.15;16.08;;;3.10;88.00;;;;;;9174169;19;20014;-73
2023/12/05 10:10:12;;;;;;;27.55;15.27;;;3.10;88.10;;;;;;9173060;19;20019;-73
2023/12/05 10:13:21;;;;;;;31.33;15.95;;;3.10;88.10;;;;;;9173394;19;20021;-72
2023/12/05 10:16:29;;;;;;;31.33;15.73;;;3.10;88.20;;;;;;9174135;19;20023;-76
2023/12/05 10:19:39;;;;;;;30.85;16.38;;;3.10;88.10;;;;;;9174941;19;20021;-73
2023/12/05 10:22:46;;;;;;;30.35;16.75;;;3.10;88.20;;;;;;9174303;19;20543;-71
2023/12/05 10:25:53;;;;;;;31.35;16.10;;;3.10;88.10;;;;;;9174355;19;20010;-72
2023/12/05 10:28:59;;;;;;;33.13;17.25;;;3.10;88.20;;;;;;9174957;19;20029;-73
2023/12/05 10:32:07;;;;;;;35.80;17.88;;;3.10;88.20;;;;;;9173715;19;20018;-72
2023/12/05 10:35:16;;;;;;;37.40;19.02;;;3.10;88.20;;;;;;9174911;19;20419;-72
2023/12/05 10:38:23;;;;;;;35.80;18.60;;;3.10;88.30;;;;;;9175120;19;20017;-73
2023/12/05 10:41:29;;;;;;;35.28;17.17;;;3.10;88.80;;;;;;9175420;19;20479;-72
2023/12/05 10:44:40;;;;;;;38.08;18.08;;;3.10;88.20;;;;;;9174282;19;20354;-76
2023/12/05 10:47:45;;;;;;;35.08;18.30;;;3.30;88.30;;;;;;9174722;19;20010;-72
2023/12/05 10:50:56;;;;;;;38.03;19.00;;;3.10;88.80;;;;;;9174094;19;20025;-74
2023/12/05 10:54:01;;;;;;;37.65;18.80;;;3.10;88.20;;;;;;9173263;19;20022;-73
2023/12/05 10:57:09;;;;;;;35.25;17.85;;;3.10;88.20;;;;;;9170430;19;20018;-75
2023/12/05 11:00:16;;;;;;;39.72;19.35;;;3.20;88.20;;;;;;9170798;19;20018;-74
2023/12/05 11:03:24;;;;;;;38.55;18.55;;;3.20;88.20;;;;;;9170134;19;20026;-72
2023/12/05 11:06:32;;;;;;;38.50;19.88;;;3.20;88.20;;;;;;9171199;19;20022;-74
2023/12/05 11:09:44;;;;;;;39.10;20.50;;;3.20;88.20;;;;;;9169441;19;20354;-76
2023/12/05 11:12:53;;;;;;;43.03;20.80;;;3.20;88.20;;;;;;9172641;19;20028;-74
2023/12/05 11:16:05;;;;;;;42.20;20.27;;;3.20;88.30;;;;;;9173936;19;20018;-74
2023/12/05 11:19:44;;;;;;;44.15;20.42;;;3.20;88.30;;;;;;9171207;19;20025;-75
2023/12/05 11:23:10;;;;;;;41.92;20.77;;;3.20;88.30;;;;;;9169007;19;20672;-76
2023/12/05 11:26:27;;;;;;;41.40;21.70;;;3.20;88.30;;;;;;9177484;19;20042;-75
2023/12/05 11:30:19;;;;;;;45.63;22.27;;;3.20;88.20;;;;;;9178105;19;20447;-76
2023/12/05 11:33:42;;;;;;;45.53;20.73;;;3.20;88.20;;;;;;9177669;19;20775;-76
2023/12/05 11:37:00;;;;;;;45.72;20.92;;;3.20;88.30;;;;;;9178740;19;20014;-77
2023/12/05 11:40:10;;;;;;;46.08;22.02;;;3.30;88.30;;;;;;9177230;19;20022;-72
2023/12/05 11:43:17;;;;;;;43.95;20.65;;;3.20;88.30;;;;;;9177083;19;20006;-77
2023/12/05 11:46:23;;;;;;;44.78;21.77;;;3.30;88.30;;;;;;9176838;19;20018;-75
2023/12/05 11:49:38;;;;;;;44.08;20.38;;;3.30;88.30;;;;;;9178545;19;20010;-77
2023/12/05 11:52:44;;;;;;;40.78;20.50;;;3.30;88.90;;;;;;9175392;19;20022;-71
2023/12/05 11:55:55;;;;;;;40.17;20.70;;;3.30;88.30;;;;;;9174372;19;20011;-71
2023/12/05 11:59:21;;;;;;;39.25;21.00;;;3.20;88.30;;;;;;9171251;19;20040;-71
2023/12/05 12:02:44;;;;;;;41.90;20.63;;;3.30;88.30;;;;;;9176341;19;20021;-71
2023/12/05 12:05:50;;;;;;;38.05;19.05;;;3.30;88.30;;;;;;9173181;19;20018;-71
2023/12/05 12:08:58;;;;;;;40.33;18.88;;;3.30;88.30;;;;;;9176130;19;20477;-71
2023/12/05 12:12:08;;;;;;;41.90;19.75;;;3.30;88.30;;;;;;9179580;19;20522;-73
2023/12/05 12:15:17;;;;;;;38.35;19.00;;;3.30;88.30;;;;;;9176493;19;20479;-72
2023/12/05 12:18:27;;;;;;;38.50;17.98;;;3.30;88.30;;;;;;9178324;19;20018;-73
2023/12/05 12:21:46;;;;;;;43.15;19.10;;;3.30;88.30;;;;;;9177617;19;20013;-70
2023/12/05 12:24:52;;;;;;;37.42;18.63;;;3.30;88.30;;;;;;9172741;19;20014;-72
2023/12/05 12:28:04;;;;;;;34.75;17.55;;;3.30;88.30;;;;;;9177923;19;20011;-71
2023/12/05 12:31:25;;;;;;;40.53;17.98;;;3.30;88.30;;;;;;9177309;19;20019;-72
2023/12/05 12:34:32;;;;;;;40.67;17.50;;;3.30;88.30;;;;;;9176594;19;20809;-72
2023/12/05 12:37:38;;;;;;;38.22;17.63;;;3.30;88.30;;;;;;9176797;19;20571;-73
2023/12/05 12:40:58;;;;;;;34.25;17.35;;;3.30;88.30;;;;;;9175018;19;20015;-74
2023/12/05 12:44:11;;;;;;;37.45;17.58;;;3.30;88.30;;;;;;9174836;19;20015;-71
2023/12/05 12:47:19;;;;;;;35.65;17.27;;;3.30;88.30;;;;;;9174995;19;20025;-70
2023/12/05 12:50:25;;;;;;;37.05;16.75;;;3.30;88.30;;;;;;9177777;19;20022;-71
2023/12/05 12:53:33;;;;;;;35.78;17.15;;;3.30;88.30;;;;;;9175134;19;20491;-73
2023/12/05 12:56:41;;;;;;;34.85;16.77;;;3.30;88.30;;;;;;9171019;19;20023;-71
2023/12/05 12:59:53;;;;;;;35.88;17.27;;;3.30;88.30;;;;;;9173091;19;20365;-71
2023/12/05 13:03:18;;;;;;;35.50;17.48;;;3.30;88.90;;;;;;9164207;19;20022;-72
2023/12/05 13:06:26;;;;;;;31.38;16.40;;;3.40;88.30;;;;;;9146508;19;20014;-73
2023/12/05 13:09:32;;;;;;;27.63;14.68;;;3.40;88.40;;;;;;9164841;19;20407;-71
2023/12/05 13:12:41;;;;;;;33.95;16.52;;;3.40;88.30;;;;;;9171673;19;20011;-72
2023/12/05 13:15:49;;;;;;;32.25;16.17;;;3.30;88.30;;;;;;9175228;19;20010;-70
2023/12/05 13:18:57;;;;;;;34.42;15.57;;;3.40;88.40;;;;;;9169196;19;20011;-70
2023/12/05 13:22:02;;;;;;;32.55;15.75;;;3.40;88.40;;;;;;9171049;19;20025;-72
2023/12/05 13:25:11;;;;;;;29.70;14.98;;;3.40;88.30;;;;;;9171179;19;20017;-72
2023/12/05 13:28:18;;;;;;;34.42;15.93;;;3.40;88.30;;;;;;9173533;19;20475;-70
2023/12/05 13:31:29;;;;;;;29.10;13.73;;;3.30;88.30;;;;;;9173016;19;20003;-72
2023/12/05 13:34:35;;;;;;;31.17;14.30;;;3.30;88.30;;;;;;9174545;19;20364;-73
2023/12/05 13:37:43;;;;;;;29.52;13.98;;;3.30;88.40;;;;;;9174831;19;20368;-71
2023/12/05 13:40:49;;;;;;;25.38;13.00;;;3.30;88.30;;;;;;9172937;19;20017;-70
2023/12/05 13:43:56;;;;;;;22.92;12.95;;;3.40;88.40;;;;;;9170971;19;20021;-71
2023/12/05 13:47:04;;;;;;;25.45;12.18;;;3.40;88.30;;;;;;9173499;19;20556;-70
2023/12/05 13:50:12;;;;;;;23.05;13.27;;;3.40;88.30;;;;;;9172462;19;20015;-71
2023/12/05 13:53:18;;;;;;;23.65;11.73;;;3.30;88.30;;;;;;9173669;19;20022;-70
2023/12/05 13:56:26;;;;;;;23.98;12.32;;;3.30;88.30;;;;;;9174324;19;20012;-69
2023/12/05 13:59:32;;;;;;;22.55;11.75;;;3.30;88.20;;;;;;9172774;19;20017;-69
2023/12/05 14:02:44;;;;;;;26.35;12.50;;;3.30;88.30;;;;;;9174380;19;20660;-70
2023/12/05 14:05:49;;;;;;;25.65;14.05;;;3.30;88.30;;;;;;9173414;19;20018;-73
2023/12/05 14:08:57;;;;;;;26.65;13.45;;;3.30;88.30;;;;;;9175124;19;20391;-69
2023/12/05 14:12:05;;;;;;;30.05;13.98;;;3.30;88.40;;;;;;9174734;19;20056;-69
2023/12/05 14:15:12;;;;;;;25.83;13.27;;;3.30;88.30;;;;;;9174951;19;20018;-73
2023/12/05 14:18:20;;;;;;;29.67;15.57;;;3.30;88.30;;;;;;9173683;19;20029;-69
2023/12/05 14:21:29;;;;;;;30.02;15.02;;;3.30;88.40;;;;;;9172743;19;20082;-73
2023/12/05 14:24:35;;;;;;;34.25;15.55;;;3.30;88.30;;;;;;9170657;19;20019;-73
2023/12/05 14:27:43;;;;;;;35.83;16.63;;;3.30;88.40;;;;;;9172272;19;20022;-69
2023/12/05 14:30:48;;;;;;;32.72;16.00;;;3.30;88.30;;;;;;9170228;19;20507;-69
2023/12/05 14:33:58;;;;;;;33.60;15.90;;;3.30;88.30;;;;;;9172591;19;20025;-70
2023/12/05 14:37:04;;;;;;;32.38;14.15;;;3.30;88.40;;;;;;9170901;19;20480;-71
2023/12/05 14:40:12;;;;;;;30.15;15.82;;;3.30;88.30;;;;;;9173493;19;20021;-72
2023/12/05 14:43:18;;;;;;;29.35;15.23;;;3.30;88.30;;;;;;9172434;19;20026;-70
2023/12/05 14:46:25;;;;;;;28.77;14.77;;;3.30;88.30;;;;;;9166563;19;20025;-71
2023/12/05 14:49:33;;;;;;;32.03;15.23;;;3.30;88.90;;;;;;9171529;19;20106;-73
2023/12/05 14:52:41;;;;;;;35.97;16.50;;;3.20;88.30;;;;;;9168788;19;20015;-70
2023/12/05 14:55:47;;;;;;;28.55;14.70;;;3.30;88.30;;;;;;9168628;19;20030;-69
2023/12/05 14:58:54;;;;;;;33.83;16.17;;;3.20;88.30;;;;;;9163867;19;20014;-71
2023/12/05 15:02:00;;;;;;;33.95;16.15;;;3.20;88.30;;;;;;9169228;19;20025;-74
2023/12/05 15:05:11;;;;;;;36.58;16.63;;;3.20;88.30;;;;;;9167648;19;20015;-71
2023/12/05 15:08:17;;;;;;;36.88;17.92;;;3.20;88.30;;;;;;9169389;19;20014;-73
2023/12/05 15:11:25;;;;;;;36.80;17.77;;;3.20;88.30;;;;;;9170415;19;20415;-69
2023/12/05 15:14:31;;;;;;;40.45;18.27;;;3.20;88.30;;;;;;9175119;19;20040;-71
2023/12/05 15:17:40;;;;;;;35.40;17.67;;;3.20;88.30;;;;;;9173512;19;20022;-71
2023/12/05 15:20:48;;;;;;;38.72;17.65;;;3.10;88.30;;;;;;9171684;19;20472;-69
2023/12/05 15:23:56;;;;;;;38.28;18.90;;;3.20;88.30;;;;;;9168655;19;20010;-71
2023/12/05 15:27:02;;;;;;;44.63;18.42;;;3.10;88.30;;;;;;9170475;19;20018;-69
2023/12/05 15:30:12;;;;;;;46.53;20.88;;;3.10;88.20;;;;;;9171426;19;20014;-69
2023/12/05 15:33:18;;;;;;;38.75;19.38;;;3.10;88.30;;;;;;9174432;19;20102;-69
2023/12/05 15:36:29;;;;;;;44.30;19.73;;;3.10;88.30;;;;;;9171859;19;20017;-70
2023/12/05 15:39:36;;;;;;;49.88;22.05;;;3.10;88.30;;;;;;9166693;19;20056;-71
2023/12/05 15:42:46;;;;;;;44.42;20.92;;;3.00;88.30;;;;;;9168531;19;20018;-70
2023/12/05 15:45:51;;;;;;;50.90;21.67;;;3.00;88.20;;;;;;9166270;19;20086;-70
2023/12/05 15:48:59;;;;;;;43.97;21.08;;;3.00;88.20;;;;;;9169040;19;20014;-70
2023/12/05 15:52:08;;;;;;;48.83;20.42;;;3.00;88.20;;;;;;9171655;19;20018;-69
2023/12/05 15:55:16;;;;;;;46.53;21.23;;;3.00;88.30;;;;;;9167933;19;20014;-69
2023/12/05 15:58:23;;;;;;;42.97;19.65;;;3.00;88.30;;;;;;9165625;19;20047;-71
2023/12/05 16:01:31;;;;;;;49.97;21.42;;;3.00;88.30;;;;;;9169013;19;20014;-72
2023/12/05 16:04:37;;;;;;;53.47;22.00;;;3.00;88.30;;;;;;9168981;19;20022;-71
2023/12/05 16:07:47;;;;;;;41.58;20.48;;;3.00;88.20;;;;;;9165779;19;20014;-71